Pendleton, OR

17:17:PDT den 22. september 2014 (GMT -0700)
Hermiston Municipal | Change Station
CLOSE
Current Station
Flyplass
Location: Hermiston,
Høyde over havet: 640 ft
Nearby Weather Stations

H.o.h 640 ft 45.83 °N, 119.26 °W | Updated 24 minutes ago

For det meste skyet
For det meste skyet
85 °F
Feels Like 85 °F
N
5
Vind Variabel Vind from V

I dag
High -- | Low -- °F
--% Chance of Precip.
I går
High -- | Low -- °F
Precip. -- tommer
6:42 AM 6:52 PM
Minkende sigd, 1% visible
Lufttrykk 29.82 tommer
Sikt 10.0 eng. mil
Skyet Klart
Duggpunkt 48 °F
Fuktighet 28%
Regn 0.00 tommer
Snødybde 0 in , 0 in , 0 in
UV 1 av 12
Pollen 5.20 av 12
Luftkvalitet Not available.
Flu Activity Not available.
METAR KHRI 222353Z AUTO 26004KT 10SM CLR 29/09 A2983 RMK AO2 SLP096 60000 T02940089 10306 20244 56014

More Conditions Fewer Conditions

Lufttrykk 29.82 tommer
Sikt 10.0 eng. mil
Skyet Klart
Duggpunkt 48 °F
Fuktighet 28%
Regn 0.00 tommer
Snødybde 0 in , 0 in , 0 in
UV 1 av 12
Pollen 5.20 av 12
Luftkvalitet Not available.
Flu Activity Not available.
METAR KHRI 222353Z AUTO 26004KT 10SM CLR 29/09 A2983 RMK AO2 SLP096 60000 T02940089 10306 20244 56014

More Conditions Fewer Conditions

10-Day Weather Forecast

Almanac

Astronomi

Sep. 22, 2014 Oppgang Nedgang
Virkelig tid 06:42 PDT 18:52 PDT
Tussmørke 06:12 PDT 19:22 PDT
Nautisk skumring 05:37 PDT 19:56 PDT
Astronomisk skumring 05:01 PDT 20:32 PDT
Månen 05:12 PDT (9/22) 18:04 PDT (9/22)
Lengde av synlig lys 13h 09m
Dagens lengde
12h 10m
Tomorrow will be 3m 11s shorter.
Minkende sigd, 1% of the Moon is Illuminated
I dag
Minkende sigd
Sep 24
Ny
Oct 1
Første kvarter
Oct 8
Fullmåne
Oct 15
Siste kvarter

Dagens maks og min

State Highs State Lows

Community

WunderPhotos

Upload Photos

1,755,562 photos uploaded!

Nearby

Snødybde

Stasjon Depth Høyde over havet
Diamond Lake 0 in 5315 ft
Peavine Ridge 0 in 3500 ft
Blazed Alder 0 in 3650 ft
Lucky Strike 0 in 5050 ft
Tipton 0 in 5150 ft

Earthquake Activity

By Distance Mag. Time & Date
No recent earthquake activity has been reported nearby.
Minimum magnitude displayed is 2.5.

Coastal Water Temperatures

Sted Temperatur
Ingen stasjoner raporterer

Nearby Weather Stations